KWWD/WWD METAR and TAF weather

Enter ICAO airport designator
Station Type Date Time Source
KWWD METAR 2021/02/27 20:56 UTC NOAA

KWWD 272056Z AUTO 28013KT 10SM CLR 08/06 A3011 RMK AO2 SLP198 T00830061 53021 $


Station Type Date Time Source
KWWD Decoded METAR 2021/02/27 20:56 UTC NOAA

Wildwood, Cape May County Airport, NJ, United States (KWWD) 39-01N 074-55W
Feb 27, 2021 - 03:56 PM EST / 2021.02.27 2056 UTC
Wind: from the W (280 degrees) at 15 MPH (13 KT):0
Visibility: 10 mile(s):0
Sky conditions: clear
Temperature: 46.9 F (8.3 C)
Dew Point: 43.0 F (6.1 C)
Relative Humidity: 86%
Pressure (altimeter): 30.11 in. Hg (1019 hPa)
Pressure tendency: 0.06 inches (2.1 hPa) higher than three hours ago
ob: KWWD 272056Z AUTO 28013KT 10SM CLR 08/06 A3011 RMK AO2 SLP198 T00830061 53021
cycle: 21

Station Type Date Time Source
KWWD TAF UTC NOAA

Error!

Example: see airport list